createdAt,value
2024-01-26T00:01:54.323Z,16.23
2024-01-26T00:04:42.233Z,13.63
2024-01-26T00:07:29.788Z,14.63
2024-01-26T00:10:17.494Z,12.23
2024-01-26T00:13:05.593Z,13.73
2024-01-26T00:15:54.602Z,10.87
2024-01-26T00:18:42.552Z,10.27
2024-01-26T00:21:29.722Z,13.43
2024-01-26T00:24:17.628Z,12.53
2024-01-26T00:27:06.120Z,15.77
2024-01-26T00:29:54.363Z,14.67
2024-01-26T00:32:42.912Z,8.70
2024-01-26T00:35:30.562Z,18.33
2024-01-26T00:38:17.927Z,17.40
2024-01-26T00:41:05.825Z,15.93
2024-01-26T00:43:53.289Z,14.43
2024-01-26T00:46:40.802Z,10.80
2024-01-26T00:49:34.818Z,20.03
2024-01-26T00:52:29.312Z,12.87
2024-01-26T00:55:16.877Z,12.20
2024-01-26T00:58:04.874Z,10.10
2024-01-26T01:00:52.376Z,16.37
2024-01-26T01:03:39.667Z,13.03
2024-01-26T01:06:28.729Z,10.57
2024-01-26T01:09:16.109Z,12.53
2024-01-26T01:12:04.251Z,14.97
2024-01-26T01:14:52.460Z,17.80
2024-01-26T01:17:40.443Z,11.20
2024-01-26T01:20:28.045Z,14.43
2024-01-26T01:23:17.473Z,16.67
2024-01-26T01:26:04.880Z,15.13
2024-01-26T01:28:52.210Z,12.60
2024-01-26T01:31:39.856Z,15.50
2024-01-26T01:34:27.545Z,20.10
2024-01-26T01:37:14.928Z,11.17
2024-01-26T01:40:03.937Z,18.50
2024-01-26T01:42:51.300Z,17.03
2024-01-26T01:45:38.950Z,11.03
2024-01-26T01:48:27.869Z,18.63
2024-01-26T01:51:16.731Z,18.73
2024-01-26T01:54:05.972Z,15.67
2024-01-26T01:56:55.688Z,15.13
2024-01-26T01:59:43.487Z,20.47
2024-01-26T02:02:30.689Z,14.60
2024-01-26T02:05:19.846Z,10.83
2024-01-26T02:08:07.900Z,18.27
2024-01-26T02:10:55.028Z,11.93
2024-01-26T02:13:44.032Z,22.93
2024-01-26T02:16:31.339Z,15.20
2024-01-26T02:19:19.070Z,17.10
2024-01-26T02:22:06.588Z,14.37
2024-01-26T02:24:55.574Z,15.17
2024-01-26T02:27:43.340Z,10.97
2024-01-26T02:30:34.757Z,16.10
2024-01-26T02:33:22.231Z,18.27
2024-01-26T02:36:10.132Z,10.83
2024-01-26T02:38:57.490Z,10.37
2024-01-26T02:41:46.066Z,13.27
2024-01-26T02:44:34.004Z,16.83
2024-01-26T02:47:21.341Z,16.73
2024-01-26T02:50:10.329Z,8.47
2024-01-26T02:52:57.866Z,19.40
2024-01-26T02:55:45.440Z,10.23
2024-01-26T02:58:34.387Z,16.57
2024-01-26T03:01:21.807Z,11.60
2024-01-26T03:04:09.299Z,13.97
2024-01-26T03:06:57.999Z,14.07
2024-01-26T03:09:45.306Z,15.93
2024-01-26T03:12:34.607Z,14.33
2024-01-26T03:15:23.825Z,12.83
2024-01-26T03:18:11.266Z,5.87
2024-01-26T03:20:58.685Z,17.33
2024-01-26T03:23:46.153Z,10.87
2024-01-26T03:26:33.994Z,19.07
2024-01-26T03:29:21.696Z,15.50
2024-01-26T03:32:10.591Z,18.07
2024-01-26T03:34:58.169Z,12.43
2024-01-26T03:37:45.791Z,18.97
2024-01-26T03:40:33.973Z,13.37
2024-01-26T03:43:21.581Z,11.70
2024-01-26T03:46:09.310Z,12.17
2024-01-26T03:48:58.448Z,21.20
2024-01-26T03:51:45.862Z,18.37
2024-01-26T03:54:33.352Z,14.63
2024-01-26T03:57:20.952Z,17.27
2024-01-26T04:00:11.396Z,19.13
2024-01-26T04:03:01.949Z,14.83
2024-01-26T04:05:50.725Z,14.17
2024-01-26T04:08:38.140Z,14.47
2024-01-26T04:11:25.397Z,12.97
2024-01-26T04:14:13.055Z,14.60
2024-01-26T04:17:00.758Z,11.17
2024-01-26T04:19:48.744Z,15.43
2024-01-26T04:22:37.682Z,14.83
2024-01-26T04:25:25.047Z,16.93
2024-01-26T04:28:13.002Z,21.37
2024-01-26T04:31:00.328Z,24.83
2024-01-26T04:33:49.142Z,15.03
2024-01-26T04:36:36.389Z,16.53
2024-01-26T04:39:25.418Z,17.80
2024-01-26T04:42:12.770Z,15.80
2024-01-26T04:45:00.315Z,12.70
2024-01-26T04:47:48.031Z,14.77
2024-01-26T04:50:35.631Z,17.23
2024-01-26T04:53:23.194Z,12.13
2024-01-26T04:56:13.429Z,17.37
2024-01-26T04:59:00.978Z,15.20
2024-01-26T05:01:48.274Z,17.70
2024-01-26T05:04:35.852Z,17.00
2024-01-26T05:07:23.722Z,15.70
2024-01-26T05:10:12.036Z,19.10
2024-01-26T05:13:01.158Z,17.27
2024-01-26T05:15:48.633Z,14.17
2024-01-26T05:18:36.405Z,15.13
2024-01-26T05:21:26.749Z,18.27
2024-01-26T05:24:15.162Z,21.20
2024-01-26T05:27:02.742Z,13.97
2024-01-26T05:29:51.511Z,16.43
2024-01-26T05:32:39.046Z,11.90
2024-01-26T05:35:26.373Z,14.30
2024-01-26T05:38:13.855Z,14.73
2024-01-26T05:41:01.277Z,13.33
2024-01-26T05:43:50.157Z,15.23
2024-01-26T05:46:38.834Z,15.33
2024-01-26T05:49:27.235Z,13.83
2024-01-26T05:52:14.589Z,15.53
2024-01-26T05:55:02.017Z,16.27
2024-01-26T05:57:49.905Z,15.33
2024-01-26T06:00:37.675Z,13.33
2024-01-26T06:03:26.570Z,11.73
2024-01-26T06:06:14.582Z,16.97
2024-01-26T06:09:02.155Z,12.93
2024-01-26T06:11:49.774Z,13.20
2024-01-26T06:14:38.238Z,16.03
2024-01-26T06:17:25.572Z,10.40
2024-01-26T06:20:15.641Z,12.67
2024-01-26T06:23:03.319Z,15.70
2024-01-26T06:25:50.599Z,16.00
2024-01-26T06:28:38.218Z,12.33
2024-01-26T06:31:27.803Z,12.63
2024-01-26T06:34:15.603Z,17.87
2024-01-26T06:37:04.807Z,10.73
2024-01-26T06:39:53.119Z,18.07
2024-01-26T06:42:40.878Z,14.20
2024-01-26T06:45:28.081Z,13.80
2024-01-26T06:48:15.780Z,16.43
2024-01-26T06:51:03.279Z,13.57
2024-01-26T06:53:52.142Z,15.70
2024-01-26T06:56:39.402Z,16.67
2024-01-26T06:59:26.896Z,17.40
2024-01-26T07:02:14.342Z,11.80
2024-01-26T07:05:01.908Z,11.90
2024-01-26T07:07:49.608Z,14.57
2024-01-26T07:10:38.531Z,16.63
2024-01-26T07:13:25.932Z,16.33
2024-01-26T07:16:13.174Z,17.33
2024-01-26T07:19:00.869Z,13.17
2024-01-26T07:21:48.220Z,14.17
2024-01-26T07:24:35.725Z,17.17
2024-01-26T07:27:24.745Z,14.63
2024-01-26T07:30:12.956Z,20.97
2024-01-26T07:33:00.537Z,21.93
2024-01-26T07:35:47.956Z,14.23
2024-01-26T07:38:35.578Z,14.87
2024-01-26T07:41:23.064Z,24.33
2024-01-26T07:44:11.892Z,19.17
2024-01-26T07:46:59.118Z,19.90
2024-01-26T07:49:46.910Z,18.47
2024-01-26T07:52:34.512Z,17.37
2024-01-26T07:55:21.983Z,17.10
2024-01-26T07:58:09.814Z,17.57
2024-01-26T08:00:59.294Z,16.90
2024-01-26T08:03:47.225Z,21.37
2024-01-26T08:06:37.838Z,25.17
2024-01-26T08:09:25.237Z,19.40
2024-01-26T08:12:24.122Z,16.20
2024-01-26T08:15:17.692Z,14.20
2024-01-26T08:18:07.437Z,20.63
2024-01-26T08:20:55.102Z,17.77
2024-01-26T08:23:42.680Z,19.30
2024-01-26T08:26:31.526Z,20.10
2024-01-26T08:29:23.096Z,20.50
2024-01-26T08:32:10.788Z,17.33
2024-01-26T08:34:59.821Z,16.17
2024-01-26T08:37:47.979Z,14.93
2024-01-26T08:40:35.298Z,19.70
2024-01-26T08:43:22.804Z,13.80
2024-01-26T08:46:10.236Z,19.17
2024-01-26T08:48:57.840Z,23.77
2024-01-26T08:51:46.823Z,15.60
2024-01-26T08:54:34.764Z,9.83
2024-01-26T08:57:22.168Z,14.17
2024-01-26T09:00:13.740Z,18.50
2024-01-26T09:03:01.135Z,14.93
2024-01-26T09:05:49.927Z,19.33
2024-01-26T09:08:39.224Z,9.83
2024-01-26T09:11:26.356Z,16.63
2024-01-26T09:14:13.855Z,18.00
2024-01-26T09:17:01.919Z,13.80
2024-01-26T09:19:49.973Z,16.20
2024-01-26T09:22:37.514Z,13.53
2024-01-26T09:25:26.988Z,16.50
2024-01-26T09:28:14.613Z,11.93
2024-01-26T09:31:01.868Z,16.97
2024-01-26T09:33:49.454Z,13.50
2024-01-26T09:36:36.542Z,15.30
2024-01-26T09:39:24.168Z,15.00
2024-01-26T09:42:13.197Z,16.60
2024-01-26T09:45:02.456Z,12.00
2024-01-26T09:47:53.170Z,13.07
2024-01-26T09:50:42.585Z,18.27
2024-01-26T09:53:34.286Z,16.20
2024-01-26T09:56:23.409Z,12.33
2024-01-26T09:59:13.183Z,17.97
2024-01-26T10:02:01.755Z,17.57
2024-01-26T10:04:48.975Z,14.10
2024-01-26T10:07:36.955Z,13.73
2024-01-26T10:10:25.367Z,15.00
2024-01-26T10:13:13.685Z,12.20
2024-01-26T10:16:08.061Z,15.23
2024-01-26T10:18:55.939Z,13.30
2024-01-26T10:21:44.972Z,11.50
2024-01-26T10:24:32.358Z,18.63
2024-01-26T10:27:20.019Z,12.97
2024-01-26T10:30:10.190Z,13.17
2024-01-26T10:32:59.672Z,15.00
2024-01-26T10:35:49.076Z,11.37
2024-01-26T10:38:38.612Z,10.77
2024-01-26T10:41:29.402Z,14.47
2024-01-26T10:44:18.019Z,16.73
2024-01-26T10:47:06.661Z,13.43
2024-01-26T10:49:58.258Z,14.13
2024-01-26T10:52:49.521Z,9.53
2024-01-26T10:55:37.626Z,14.50
2024-01-26T10:58:25.241Z,10.97
2024-01-26T11:01:14.096Z,11.50
2024-01-26T11:04:02.654Z,15.03
2024-01-26T11:06:52.026Z,12.83
2024-01-26T11:09:40.403Z,13.20
2024-01-26T11:12:28.317Z,12.70
2024-01-26T11:15:16.398Z,10.17
2024-01-26T11:18:05.888Z,15.37
2024-01-26T11:20:53.509Z,9.30
2024-01-26T11:23:43.643Z,9.20
2024-01-26T11:26:31.201Z,8.80
2024-01-26T11:29:19.209Z,8.20
2024-01-26T11:32:18.397Z,16.97
2024-01-26T11:35:07.523Z,13.10
2024-01-26T11:37:57.201Z,7.80
2024-01-26T11:40:46.465Z,8.70
2024-01-26T11:43:34.104Z,8.73
2024-01-26T11:46:22.344Z,12.13
2024-01-26T11:49:10.062Z,7.93
2024-01-26T11:51:57.929Z,10.03
2024-01-26T11:54:45.437Z,10.83
2024-01-26T11:57:36.205Z,8.40
2024-01-26T12:00:23.905Z,7.80
2024-01-26T12:03:16.372Z,7.17
2024-01-26T12:06:04.057Z,7.10
2024-01-26T12:08:52.085Z,6.77
2024-01-26T12:11:40.174Z,8.07
2024-01-26T12:14:29.246Z,8.20
2024-01-26T12:17:18.099Z,8.23
2024-01-26T12:20:09.424Z,6.50
2024-01-26T12:22:56.898Z,11.47
2024-01-26T12:25:44.258Z,6.50
2024-01-26T12:28:32.707Z,5.57
2024-01-26T12:31:22.443Z,8.43
2024-01-26T12:34:14.475Z,6.33
2024-01-26T12:37:02.141Z,9.07
2024-01-26T12:39:49.805Z,6.30
2024-01-26T12:42:37.028Z,4.63
2024-01-26T12:45:24.632Z,7.00
2024-01-26T12:48:13.834Z,6.67
2024-01-26T12:51:02.546Z,9.23
2024-01-26T12:53:50.280Z,9.37
2024-01-26T12:56:38.025Z,5.57
2024-01-26T12:59:25.391Z,8.40
2024-01-26T13:02:13.132Z,7.73
2024-01-26T13:05:01.983Z,6.17
2024-01-26T13:07:49.540Z,8.87
2024-01-26T13:10:37.282Z,7.97
2024-01-26T13:13:26.135Z,5.17
2024-01-26T13:16:13.656Z,7.27
2024-01-26T13:19:01.189Z,5.60
2024-01-26T13:21:50.362Z,5.83
2024-01-26T13:24:37.798Z,8.33
2024-01-26T13:27:25.351Z,6.60
2024-01-26T13:30:14.525Z,6.63
2024-01-26T13:33:01.951Z,6.53
2024-01-26T13:35:49.861Z,6.77
2024-01-26T13:38:38.301Z,4.83
2024-01-26T13:41:26.277Z,4.33
2024-01-26T13:44:13.992Z,4.63
2024-01-26T13:47:01.407Z,5.17
2024-01-26T13:49:53.626Z,5.07
2024-01-26T13:52:41.645Z,5.33
2024-01-26T13:55:30.829Z,5.73
2024-01-26T13:58:19.351Z,6.30
2024-01-26T14:01:06.898Z,6.03
2024-01-26T14:03:55.160Z,3.97
2024-01-26T14:06:43.483Z,4.37
2024-01-26T14:09:30.753Z,3.90
2024-01-26T14:12:19.940Z,3.40
2024-01-26T14:15:11.180Z,3.43
2024-01-26T14:17:59.444Z,3.47
2024-01-26T14:20:47.724Z,5.17
2024-01-26T14:23:36.655Z,3.80
2024-01-26T14:26:28.481Z,3.70
2024-01-26T14:29:19.020Z,4.53
2024-01-26T14:32:07.192Z,4.70
2024-01-26T14:34:54.508Z,3.57
2024-01-26T14:37:43.031Z,4.53
2024-01-26T14:40:39.530Z,3.60
2024-01-26T14:43:27.736Z,3.50
2024-01-26T14:46:15.596Z,3.67
2024-01-26T14:49:04.967Z,3.30
2024-01-26T14:51:52.285Z,4.20
2024-01-26T14:54:39.975Z,3.73
2024-01-26T14:57:29.542Z,4.10
2024-01-26T15:00:17.976Z,5.43
2024-01-26T15:03:05.939Z,3.60
2024-01-26T15:05:53.234Z,3.40
2024-01-26T15:08:40.968Z,4.30
2024-01-26T15:11:29.043Z,3.57
2024-01-26T15:14:17.916Z,2.23
2024-01-26T15:17:05.828Z,1.80
2024-01-26T15:19:54.103Z,1.70
2024-01-26T15:22:41.788Z,1.80
2024-01-26T15:25:29.139Z,2.40
2024-01-26T15:28:16.991Z,2.60
2024-01-26T15:31:06.584Z,1.93
2024-01-26T15:33:54.381Z,3.10
2024-01-26T15:36:41.906Z,3.60
2024-01-26T15:39:29.462Z,2.87
2024-01-26T15:42:19.946Z,2.63
2024-01-26T15:45:08.929Z,1.70
2024-01-26T15:47:57.959Z,1.10
2024-01-26T15:50:45.674Z,0.90
2024-01-26T15:53:32.862Z,1.83
2024-01-26T15:56:21.082Z,1.47
2024-01-26T15:59:08.419Z,1.47
2024-01-26T16:01:55.933Z,2.97
2024-01-26T16:04:45.194Z,2.57
2024-01-26T16:07:32.862Z,3.30
2024-01-26T16:10:20.276Z,2.97
2024-01-26T16:13:07.893Z,4.97
2024-01-26T16:15:55.520Z,4.93
2024-01-26T16:18:43.222Z,6.37
2024-01-26T16:21:32.237Z,6.17
2024-01-26T16:24:20.114Z,3.60
2024-01-26T16:27:07.575Z,6.33
2024-01-26T16:29:55.320Z,4.13
2024-01-26T16:32:42.791Z,3.43
2024-01-26T16:35:30.165Z,3.13
2024-01-26T16:38:19.028Z,1.10
2024-01-26T16:41:06.948Z,1.90
2024-01-26T16:43:54.910Z,1.10
2024-01-26T16:46:42.497Z,2.10
2024-01-26T16:49:30.034Z,1.93
2024-01-26T16:52:17.805Z,1.30
2024-01-26T16:55:07.975Z,2.83
2024-01-26T16:57:55.557Z,3.40
2024-01-26T17:00:44.763Z,1.30
2024-01-26T17:03:32.286Z,1.00
2024-01-26T17:06:19.706Z,2.03
2024-01-26T17:09:07.170Z,3.60
2024-01-26T17:11:56.062Z,2.63
2024-01-26T17:14:43.537Z,1.03
2024-01-26T17:17:31.032Z,0.90
2024-01-26T17:20:19.363Z,2.17
2024-01-26T17:23:07.036Z,1.77
2024-01-26T17:25:56.495Z,2.97
2024-01-26T17:28:45.241Z,3.43
2024-01-26T17:31:33.090Z,1.60
2024-01-26T17:34:20.697Z,2.20
2024-01-26T17:37:08.371Z,2.23
2024-01-26T17:40:00.334Z,3.30
2024-01-26T17:42:51.663Z,1.07
2024-01-26T17:45:41.467Z,5.03
2024-01-26T17:48:28.934Z,3.30
2024-01-26T17:51:16.540Z,9.10
2024-01-26T17:54:03.966Z,3.77
2024-01-26T17:56:52.029Z,8.30
2024-01-26T17:59:43.489Z,4.00
2024-01-26T18:02:32.633Z,1.80
2024-01-26T18:05:22.468Z,4.27
2024-01-26T18:08:09.917Z,2.30
2024-01-26T18:10:58.962Z,6.13
2024-01-26T18:13:46.703Z,4.80
2024-01-26T18:16:34.196Z,8.63
2024-01-26T18:19:23.309Z,3.37
2024-01-26T18:22:10.862Z,2.77
2024-01-26T18:24:58.650Z,3.43
2024-01-26T18:27:46.202Z,3.70
2024-01-26T18:30:33.713Z,6.33
2024-01-26T18:33:21.535Z,10.03
2024-01-26T18:36:10.986Z,6.70
2024-01-26T18:38:58.613Z,8.30
2024-01-26T18:41:46.100Z,9.80
2024-01-26T18:44:33.822Z,5.63
2024-01-26T18:47:21.403Z,5.83
2024-01-26T18:50:09.520Z,12.07
2024-01-26T18:52:58.314Z,12.43
2024-01-26T18:55:48.469Z,9.00
2024-01-26T18:58:36.649Z,6.53
2024-01-26T19:01:24.781Z,8.00
2024-01-26T19:04:12.497Z,10.03
2024-01-26T19:07:00.313Z,8.13
2024-01-26T19:09:49.430Z,9.90
2024-01-26T19:12:36.796Z,6.00
2024-01-26T19:15:24.059Z,12.73
2024-01-26T19:18:16.711Z,10.60
2024-01-26T19:21:04.076Z,8.53
2024-01-26T19:23:51.633Z,11.77
2024-01-26T19:26:40.820Z,7.90
2024-01-26T19:29:28.189Z,8.60
2024-01-26T19:32:15.728Z,8.07
2024-01-26T19:35:05.016Z,12.07
2024-01-26T19:37:52.715Z,12.20
2024-01-26T19:40:40.045Z,11.60
2024-01-26T19:43:28.913Z,10.73
2024-01-26T19:46:16.384Z,6.47
2024-01-26T19:49:04.194Z,9.57
2024-01-26T19:51:52.053Z,10.53
2024-01-26T19:54:40.570Z,9.73
2024-01-26T19:57:28.644Z,6.23
2024-01-26T20:00:18.717Z,9.80
2024-01-26T20:03:06.774Z,5.30
2024-01-26T20:05:54.343Z,12.33
2024-01-26T20:08:43.184Z,6.97
2024-01-26T20:11:30.903Z,9.83
2024-01-26T20:14:18.323Z,10.60
2024-01-26T20:17:09.085Z,8.40
2024-01-26T20:19:57.080Z,9.20
2024-01-26T20:22:44.820Z,12.87
2024-01-26T20:25:32.586Z,6.50
2024-01-26T20:28:20.092Z,15.20
2024-01-26T20:31:11.056Z,12.33
2024-01-26T20:34:03.230Z,2.97
2024-01-26T20:36:51.070Z,8.37
2024-01-26T20:39:38.449Z,11.77
2024-01-26T20:42:27.431Z,11.43
2024-01-26T20:45:15.154Z,8.67
2024-01-26T20:48:02.608Z,13.10
2024-01-26T20:50:52.461Z,8.77
2024-01-26T20:53:40.418Z,10.63
2024-01-26T20:56:29.856Z,10.67
2024-01-26T20:59:17.396Z,14.63
2024-01-26T21:02:06.305Z,11.57
2024-01-26T21:04:53.662Z,12.23
2024-01-26T21:07:46.228Z,5.63
2024-01-26T21:10:33.920Z,9.30
2024-01-26T21:13:21.307Z,10.83
2024-01-26T21:16:08.980Z,11.63
2024-01-26T21:18:56.528Z,12.37
2024-01-26T21:21:44.649Z,15.57
2024-01-26T21:24:33.350Z,16.73
2024-01-26T21:27:21.365Z,13.90
2024-01-26T21:30:10.202Z,8.40
2024-01-26T21:32:59.367Z,18.97
2024-01-26T21:35:47.041Z,10.73
2024-01-26T21:38:34.592Z,14.17
2024-01-26T21:41:23.472Z,12.40
2024-01-26T21:44:11.541Z,9.10
2024-01-26T21:46:58.890Z,15.40
2024-01-26T21:49:46.536Z,21.40
2024-01-26T21:52:34.122Z,17.60
2024-01-26T21:55:23.806Z,16.50
2024-01-26T21:58:12.537Z,10.40
2024-01-26T22:01:00.633Z,8.90
2024-01-26T22:03:48.664Z,14.20
2024-01-26T22:06:36.969Z,15.47
2024-01-26T22:09:24.494Z,12.03
2024-01-26T22:12:12.171Z,12.60
2024-01-26T22:15:01.343Z,10.83
2024-01-26T22:17:49.233Z,8.87
2024-01-26T22:20:36.999Z,10.40
2024-01-26T22:23:24.602Z,11.53
2024-01-26T22:26:12.312Z,11.97
2024-01-26T22:29:01.311Z,8.60
2024-01-26T22:31:50.414Z,11.60
2024-01-26T22:34:37.775Z,11.20
2024-01-26T22:37:25.585Z,11.73
2024-01-26T22:40:13.870Z,8.53
2024-01-26T22:43:04.115Z,5.93
2024-01-26T22:45:54.001Z,14.27
2024-01-26T22:48:44.281Z,13.20
2024-01-26T22:51:31.927Z,12.77
2024-01-26T22:54:19.340Z,8.57
2024-01-26T22:57:07.190Z,6.60
2024-01-26T22:59:54.488Z,9.20
2024-01-26T23:02:41.970Z,13.40
2024-01-26T23:05:31.855Z,10.90
2024-01-26T23:08:19.373Z,6.63
2024-01-26T23:11:06.999Z,12.57
2024-01-26T23:13:54.480Z,15.17
2024-01-26T23:16:42.265Z,12.93
2024-01-26T23:19:31.515Z,12.73
2024-01-26T23:22:22.121Z,8.43
2024-01-26T23:25:10.343Z,9.37
2024-01-26T23:27:57.567Z,15.63
2024-01-26T23:30:45.159Z,10.37
2024-01-26T23:33:32.933Z,8.10
2024-01-26T23:36:20.339Z,14.93
2024-01-26T23:39:09.013Z,10.70
2024-01-26T23:41:56.275Z,13.87
2024-01-26T23:44:43.826Z,10.90
2024-01-26T23:47:31.288Z,12.40
2024-01-26T23:50:18.828Z,10.37
2024-01-26T23:53:06.254Z,9.17
2024-01-26T23:55:54.804Z,11.03
2024-01-26T23:58:41.975Z,6.70
